Terminal Aerodrome Forecast
Issued by NWS

Home | Current Version | Previous Version | Text Only | Print | Product List | Glossary On
Versions: 1 2 3 4 5 6 7 8 9 10 11 12 13 14
000
FTUS46 KMTR 300527
TAFSTS
TAF
KSTS 300527Z 3006/3106 14003KT P6SM SCT040 BKN110
     FM300800 20005KT P6SM SCT008 BKN012 OVC020
      TEMPO 3008/3012 -RA BKN008 OVC010
     FM301600 25005KT P6SM SCT030 BKN100
     FM301900 32015G22KT P6SM FEW030 SCT250=

USA.gov is the U.S. government's official web portal to all federal, state and local government web resources and services.